• Join FlightAware (Why Join?)
  • Login
  • US Flag 
12:00AM EDT


 

Airport Tracker/Info


-or-


 

Live Flight TrackerFlight Track Log ✈ TAM3244 ✈ 11-May-2013 ✈ SBSP / CGH - SBUL / UDI

Flight Track Log - Related Links

Times and Time Zones

All times are in EDT time to prevent confusion due to time zone crossing. See the TAM3244 flight status page for this flight to view local times or setup timezone preferences in your user account.

Time Position Orientation Groundspeed Altitude Reporting Facility
EDT Latitude Longitude Course Direction KTS MPH feet Rate Location/Type
12:43PM -22.8076 -46.9343 343° North  Level Estimated
12:44PM -22.7166 -46.9651 343° North  Level Estimated
12:45PM -22.6255 -46.9959 343° North  Level Estimated
12:46PM -22.5345 -47.0266 343° North  Level Estimated
12:47PM -22.4434 -47.0572 343° North  Level Estimated
12:48PM -22.3523 -47.0879 343° North  Level Estimated
12:49PM -22.2613 -47.1184 343° North  Level Estimated
12:50PM -22.1702 -47.1490 343° North  Level Estimated
12:51PM -22.0791 -47.1795 343° North  Level Estimated
12:52PM -21.9880 -47.2100 343° North  Level Estimated
12:53PM -21.8969 -47.2404 343° North  Level Estimated
12:54PM -21.8058 -47.2708 343° North  Level Estimated
12:55PM -21.7147 -47.3011 343° North  Level Estimated
12:56PM -21.6236 -47.3314 343° North  Level Estimated
12:57PM -21.5325 -47.3617 343° North  Level Estimated
12:58PM -21.4414 -47.3919 343° North  Level Estimated
12:59PM -21.3502 -47.4221 343° North  Level Estimated
01:00PM -21.2591 -47.4523 343° North  Level Estimated
01:01PM -21.1680 -47.4824 343° North  Level Estimated
01:02PM -21.0768 -47.5125 343° North  Level Estimated
01:03PM -20.9857 -47.5426 343° North  Level Estimated
01:04PM -20.8945 -47.5726 343° North  Level Estimated
01:05PM -20.8034 -47.6025 343° North  Level Estimated
01:06PM -20.7122 -47.6325 343° North  Level Estimated
01:07PM -20.6210 -47.6624 343° North  Level Estimated
01:08PM -20.5299 -47.6922 343° North  Level Estimated
01:09PM -20.4387 -47.7221 343° North  Level Estimated
01:10PM -20.3475 -47.7519 343° North  Level Estimated
01:11PM -20.2563 -47.7816 343° North  Level Estimated
01:12PM -20.1651 -47.8114 343° North  Level Estimated
01:13PM -20.0739 -47.8411 343° North  Level Estimated
01:14PM -19.9827 -47.8707 343° North  Level Estimated
01:15PM -19.8915 -47.9003 343° North  Level Estimated
01:16PM -19.8003 -47.9299 343° North  Level Estimated
01:17PM -19.7091 -47.9595 343° North  Level Estimated
01:18PM -19.6179 -47.9890 343° North  Level Estimated
01:19PM -19.5266 -48.0185 343° North  Level Estimated
01:20PM -19.4354 -48.0479 343° North  Level Estimated
01:21PM -19.3442 -48.0774 343° North  Level Estimated
01:22PM -19.2529 -48.1068 343° North  Level Estimated
01:23PM -19.1617 -48.1361 343° North  Level Estimated
01:24PM -19.0704 -48.1654 343° North  Level Estimated
01:25PM -18.9792 -48.1947 343° North  Level Estimated
01:26PM -18.8879 -48.2240 343° North  Level Estimated
01:27PM -18.8828 -48.2256 343° North  Level Estimated
01:28PM -18.8828 -48.2256 223° Southwest  Level Estimated
01:29PM -18.8828 -48.2256 223° Southwest  Level Estimated
01:30PM -18.8828 -48.2256 223° Southwest  Level Estimated
01:31PM -18.8828 -48.2256 223° Southwest  Level Estimated
01:32PM -18.8828 -48.2256 223° Southwest  Level Estimated
01:33PM -18.8828 -48.2256 223° Southwest  Level Estimated
01:34PM -18.8828 -48.2256 223° Southwest  Level Estimated
01:35PM -18.8828 -48.2256 223° Southwest  Level Estimated
01:36PM -18.8828 -48.2256 223° Southwest  Level Estimated
01:37PM -18.8828 -48.2256 223° Southwest  Level Estimated
01:38PM -18.8828 -48.2256 223° Southwest  Level Estimated
01:39PM -18.8828 -48.2256 223° Southwest  Level Estimated
01:40PM -18.8828 -48.2256 223° Southwest  Level Estimated
01:41PM -18.8828 -48.2256 223° Southwest  Level Estimated
01:42PM -18.8828 -48.2256 223° Southwest  Level Estimated